sensor_id;sensor_type;location;lat;lon;timestamp;temperature;humidity
60848;DHT22;46681;47.696;9.140;2023-06-26T00:02:20;22.40;43.30
60848;DHT22;46681;47.696;9.140;2023-06-26T00:04:46;22.40;43.30
60848;DHT22;46681;47.696;9.140;2023-06-26T00:07:11;22.40;43.30
60848;DHT22;46681;47.696;9.140;2023-06-26T00:09:37;22.30;43.30
60848;DHT22;46681;47.696;9.140;2023-06-26T00:12:03;22.30;43.30
60848;DHT22;46681;47.696;9.140;2023-06-26T00:14:29;22.30;43.40
60848;DHT22;46681;47.696;9.140;2023-06-26T00:16:55;22.20;43.80
60848;DHT22;46681;47.696;9.140;2023-06-26T00:19:21;22.20;43.40
60848;DHT22;46681;47.696;9.140;2023-06-26T00:21:47;22.20;43.50
60848;DHT22;46681;47.696;9.140;2023-06-26T00:24:16;22.20;44.00
60848;DHT22;46681;47.696;9.140;2023-06-26T00:26:41;22.10;43.60
60848;DHT22;46681;47.696;9.140;2023-06-26T00:29:08;22.10;43.70
60848;DHT22;46681;47.696;9.140;2023-06-26T00:31:34;22.10;43.70
60848;DHT22;46681;47.696;9.140;2023-06-26T00:34:00;22.10;43.70
60848;DHT22;46681;47.696;9.140;2023-06-26T00:36:25;22.00;43.70
60848;DHT22;46681;47.696;9.140;2023-06-26T00:38:51;22.00;43.80
60848;DHT22;46681;47.696;9.140;2023-06-26T00:41:16;22.00;43.80
60848;DHT22;46681;47.696;9.140;2023-06-26T00:43:42;22.00;43.80
60848;DHT22;46681;47.696;9.140;2023-06-26T00:46:13;21.90;43.80
60848;DHT22;46681;47.696;9.140;2023-06-26T00:48:40;21.90;43.90
60848;DHT22;46681;47.696;9.140;2023-06-26T00:51:07;21.90;44.00
60848;DHT22;46681;47.696;9.140;2023-06-26T00:56:02;21.80;44.00
60848;DHT22;46681;47.696;9.140;2023-06-26T00:58:33;21.80;43.70
60848;DHT22;46681;47.696;9.140;2023-06-26T01:00:59;21.80;44.20
60848;DHT22;46681;47.696;9.140;2023-06-26T01:03:25;21.70;44.10
60848;DHT22;46681;47.696;9.140;2023-06-26T01:05:52;21.70;44.20
60848;DHT22;46681;47.696;9.140;2023-06-26T01:08:22;21.70;44.30
60848;DHT22;46681;47.696;9.140;2023-06-26T01:10:49;21.70;44.30
60848;DHT22;46681;47.696;9.140;2023-06-26T01:13:15;21.70;44.30
60848;DHT22;46681;47.696;9.140;2023-06-26T01:15:46;21.60;44.40
60848;DHT22;46681;47.696;9.140;2023-06-26T01:18:12;21.60;44.40
60848;DHT22;46681;47.696;9.140;2023-06-26T01:20:41;21.60;44.40
60848;DHT22;46681;47.696;9.140;2023-06-26T01:23:20;21.60;44.50
60848;DHT22;46681;47.696;9.140;2023-06-26T01:28:32;21.50;44.60
60848;DHT22;46681;47.696;9.140;2023-06-26T01:30:59;21.50;44.50
60848;DHT22;46681;47.696;9.140;2023-06-26T01:33:26;21.40;44.70
60848;DHT22;46681;47.696;9.140;2023-06-26T01:35:56;21.40;44.60
60848;DHT22;46681;47.696;9.140;2023-06-26T01:38:22;21.40;44.80
60848;DHT22;46681;47.696;9.140;2023-06-26T01:40:48;21.40;44.80
60848;DHT22;46681;47.696;9.140;2023-06-26T01:46:31;21.30;44.80
60848;DHT22;46681;47.696;9.140;2023-06-26T01:49:17;21.40;45.00
60848;DHT22;46681;47.696;9.140;2023-06-26T01:54:35;21.20;45.00
60848;DHT22;46681;47.696;9.140;2023-06-26T01:57:03;21.20;45.40
60848;DHT22;46681;47.696;9.140;2023-06-26T01:59:31;21.20;45.10
60848;DHT22;46681;47.696;9.140;2023-06-26T02:02:07;21.20;45.10
60848;DHT22;46681;47.696;9.140;2023-06-26T02:04:33;21.20;45.30
60848;DHT22;46681;47.696;9.140;2023-06-26T02:06:59;21.20;45.30
60848;DHT22;46681;47.696;9.140;2023-06-26T02:09:25;21.10;45.30
60848;DHT22;46681;47.696;9.140;2023-06-26T02:11:52;21.10;45.40
60848;DHT22;46681;47.696;9.140;2023-06-26T02:14:21;21.10;45.30
60848;DHT22;46681;47.696;9.140;2023-06-26T02:16:46;21.10;45.30
60848;DHT22;46681;47.696;9.140;2023-06-26T02:19:12;21.10;45.40
60848;DHT22;46681;47.696;9.140;2023-06-26T02:21:37;21.00;45.50
60848;DHT22;46681;47.696;9.140;2023-06-26T02:24:03;21.00;45.40
60848;DHT22;46681;47.696;9.140;2023-06-26T02:26:30;21.00;45.50
60848;DHT22;46681;47.696;9.140;2023-06-26T02:28:55;21.00;45.60
60848;DHT22;46681;47.696;9.140;2023-06-26T02:31:21;21.00;45.60
60848;DHT22;46681;47.696;9.140;2023-06-26T02:33:46;20.90;45.70
60848;DHT22;46681;47.696;9.140;2023-06-26T02:36:12;20.90;45.70
60848;DHT22;46681;47.696;9.140;2023-06-26T02:38:37;20.90;45.80
60848;DHT22;46681;47.696;9.140;2023-06-26T02:41:03;20.90;45.80
60848;DHT22;46681;47.696;9.140;2023-06-26T02:43:28;20.90;45.90
60848;DHT22;46681;47.696;9.140;2023-06-26T02:45:54;20.80;45.90
60848;DHT22;46681;47.696;9.140;2023-06-26T02:50:45;20.80;46.50
60848;DHT22;46681;47.696;9.140;2023-06-26T02:53:11;20.80;46.10
60848;DHT22;46681;47.696;9.140;2023-06-26T02:55:37;20.80;46.20
60848;DHT22;46681;47.696;9.140;2023-06-26T02:58:02;20.70;46.20
60848;DHT22;46681;47.696;9.140;2023-06-26T03:00:28;20.70;46.60
60848;DHT22;46681;47.696;9.140;2023-06-26T03:02:55;20.70;46.30
60848;DHT22;46681;47.696;9.140;2023-06-26T03:05:21;20.70;46.30
60848;DHT22;46681;47.696;9.140;2023-06-26T03:07:48;20.70;46.40
60848;DHT22;46681;47.696;9.140;2023-06-26T03:10:14;20.70;46.40
60848;DHT22;46681;47.696;9.140;2023-06-26T03:12:40;20.60;46.40
60848;DHT22;46681;47.696;9.140;2023-06-26T03:15:06;20.60;46.50
60848;DHT22;46681;47.696;9.140;2023-06-26T03:17:31;20.60;46.50
60848;DHT22;46681;47.696;9.140;2023-06-26T03:19:57;20.60;46.60
60848;DHT22;46681;47.696;9.140;2023-06-26T03:22:22;20.60;46.50
60848;DHT22;46681;47.696;9.140;2023-06-26T03:24:48;20.60;46.60
60848;DHT22;46681;47.696;9.140;2023-06-26T03:27:13;20.60;46.60
60848;DHT22;46681;47.696;9.140;2023-06-26T03:29:39;20.50;46.60
60848;DHT22;46681;47.696;9.140;2023-06-26T03:32:06;20.50;46.70
60848;DHT22;46681;47.696;9.140;2023-06-26T03:34:32;20.50;46.70
60848;DHT22;46681;47.696;9.140;2023-06-26T03:36:58;20.50;46.80
60848;DHT22;46681;47.696;9.140;2023-06-26T03:39:23;20.50;47.50
60848;DHT22;46681;47.696;9.140;2023-06-26T03:41:48;20.60;51.20
60848;DHT22;46681;47.696;9.140;2023-06-26T03:44:15;20.70;52.50
60848;DHT22;46681;47.696;9.140;2023-06-26T03:46:42;20.70;52.10
60848;DHT22;46681;47.696;9.140;2023-06-26T03:49:07;20.80;52.10
60848;DHT22;46681;47.696;9.140;2023-06-26T04:13:32;20.80;51.80
60848;DHT22;46681;47.696;9.140;2023-06-26T04:15:59;20.90;52.30
60848;DHT22;46681;47.696;9.140;2023-06-26T04:18:25;20.90;52.20
60848;DHT22;46681;47.696;9.140;2023-06-26T04:21:11;20.90;52.40
60848;DHT22;46681;47.696;9.140;2023-06-26T04:23:40;20.90;52.30
60848;DHT22;46681;47.696;9.140;2023-06-26T04:26:06;20.80;53.40
60848;DHT22;46681;47.696;9.140;2023-06-26T04:28:34;20.90;53.10
60848;DHT22;46681;47.696;9.140;2023-06-26T04:31:00;20.90;52.90
60848;DHT22;46681;47.696;9.140;2023-06-26T04:33:27;20.90;52.90
60848;DHT22;46681;47.696;9.140;2023-06-26T04:36:00;20.90;52.90
60848;DHT22;46681;47.696;9.140;2023-06-26T04:38:25;20.90;52.70
60848;DHT22;46681;47.696;9.140;2023-06-26T04:40:51;20.90;52.60
60848;DHT22;46681;47.696;9.140;2023-06-26T04:43:16;20.90;52.60
60848;DHT22;46681;47.696;9.140;2023-06-26T04:45:43;20.90;52.40
60848;DHT22;46681;47.696;9.140;2023-06-26T04:48:11;20.80;52.00
60848;DHT22;46681;47.696;9.140;2023-06-26T04:50:42;20.80;52.40
60848;DHT22;46681;47.696;9.140;2023-06-26T04:53:11;20.80;52.10
60848;DHT22;46681;47.696;9.140;2023-06-26T04:55:50;20.80;51.90
60848;DHT22;46681;47.696;9.140;2023-06-26T04:58:32;20.70;51.70
60848;DHT22;46681;47.696;9.140;2023-06-26T05:00:58;20.70;51.60
60848;DHT22;46681;47.696;9.140;2023-06-26T05:03:24;20.70;51.40
60848;DHT22;46681;47.696;9.140;2023-06-26T05:05:49;20.70;51.40
60848;DHT22;46681;47.696;9.140;2023-06-26T05:11:20;20.60;51.10
60848;DHT22;46681;47.696;9.140;2023-06-26T05:13:47;20.60;51.00
60848;DHT22;46681;47.696;9.140;2023-06-26T05:16:16;20.60;50.90
60848;DHT22;46681;47.696;9.140;2023-06-26T05:18:42;20.60;50.90
60848;DHT22;46681;47.696;9.140;2023-06-26T05:21:15;20.60;51.00
60848;DHT22;46681;47.696;9.140;2023-06-26T05:23:45;20.60;50.80
60848;DHT22;46681;47.696;9.140;2023-06-26T05:26:17;20.60;50.90
60848;DHT22;46681;47.696;9.140;2023-06-26T05:28:43;20.70;50.80
60848;DHT22;46681;47.696;9.140;2023-06-26T05:31:21;20.70;50.70
60848;DHT22;46681;47.696;9.140;2023-06-26T05:33:51;20.70;52.10
60848;DHT22;46681;47.696;9.140;2023-06-26T05:36:33;20.70;52.00
60848;DHT22;46681;47.696;9.140;2023-06-26T05:39:03;20.70;52.60
60848;DHT22;46681;47.696;9.140;2023-06-26T05:41:36;20.80;52.30
60848;DHT22;46681;47.696;9.140;2023-06-26T05:44:04;20.80;52.30
60848;DHT22;46681;47.696;9.140;2023-06-26T05:46:46;20.70;52.00
60848;DHT22;46681;47.696;9.140;2023-06-26T05:49:12;20.80;51.90
60848;DHT22;46681;47.696;9.140;2023-06-26T05:51:51;20.80;51.80
60848;DHT22;46681;47.696;9.140;2023-06-26T05:54:32;20.80;51.70
60848;DHT22;46681;47.696;9.140;2023-06-26T05:56:58;20.80;51.40
60848;DHT22;46681;47.696;9.140;2023-06-26T05:59:24;20.80;51.40
60848;DHT22;46681;47.696;9.140;2023-06-26T06:01:58;20.70;52.10
60848;DHT22;46681;47.696;9.140;2023-06-26T06:04:26;20.80;54.20
60848;DHT22;46681;47.696;9.140;2023-06-26T06:06:55;20.80;53.60
60848;DHT22;46681;47.696;9.140;2023-06-26T06:09:20;20.80;53.40
60848;DHT22;46681;47.696;9.140;2023-06-26T06:11:46;20.80;54.00
60848;DHT22;46681;47.696;9.140;2023-06-26T06:14:45;20.90;53.90
60848;DHT22;46681;47.696;9.140;2023-06-26T06:17:12;20.90;53.60
60848;DHT22;46681;47.696;9.140;2023-06-26T06:19:47;21.00;53.20
60848;DHT22;46681;47.696;9.140;2023-06-26T06:22:21;21.00;53.00
60848;DHT22;46681;47.696;9.140;2023-06-26T06:24:58;21.00;52.60
60848;DHT22;46681;47.696;9.140;2023-06-26T06:27:32;21.00;52.50
60848;DHT22;46681;47.696;9.140;2023-06-26T06:29:58;21.10;52.30
60848;DHT22;46681;47.696;9.140;2023-06-26T06:32:23;21.10;51.90
60848;DHT22;46681;47.696;9.140;2023-06-26T06:34:52;21.10;53.00
60848;DHT22;46681;47.696;9.140;2023-06-26T06:37:19;21.20;51.90
60848;DHT22;46681;47.696;9.140;2023-06-26T06:39:45;21.20;51.50
60848;DHT22;46681;47.696;9.140;2023-06-26T06:42:20;21.30;51.40
60848;DHT22;46681;47.696;9.140;2023-06-26T06:47:57;21.40;50.80
60848;DHT22;46681;47.696;9.140;2023-06-26T06:50:29;21.50;50.50
60848;DHT22;46681;47.696;9.140;2023-06-26T06:52:57;21.60;50.30
60848;DHT22;46681;47.696;9.140;2023-06-26T06:55:23;21.70;50.10
60848;DHT22;46681;47.696;9.140;2023-06-26T06:58:00;21.80;49.90
60848;DHT22;46681;47.696;9.140;2023-06-26T07:00:32;21.90;49.90
60848;DHT22;46681;47.696;9.140;2023-06-26T07:03:16;22.00;49.50
60848;DHT22;46681;47.696;9.140;2023-06-26T07:06:02;22.10;49.30
60848;DHT22;46681;47.696;9.140;2023-06-26T07:08:31;22.20;49.00
60848;DHT22;46681;47.696;9.140;2023-06-26T07:11:06;22.40;48.80
60848;DHT22;46681;47.696;9.140;2023-06-26T07:13:33;22.50;48.80
60848;DHT22;46681;47.696;9.140;2023-06-26T07:16:00;22.60;48.60
60848;DHT22;46681;47.696;9.140;2023-06-26T07:18:26;22.70;48.40
60848;DHT22;46681;47.696;9.140;2023-06-26T07:20:52;22.80;48.40
60848;DHT22;46681;47.696;9.140;2023-06-26T07:23:28;22.90;48.20
60848;DHT22;46681;47.696;9.140;2023-06-26T07:25:54;23.10;48.00
60848;DHT22;46681;47.696;9.140;2023-06-26T07:28:31;23.20;47.70
60848;DHT22;46681;47.696;9.140;2023-06-26T07:30:57;23.40;50.70
60848;DHT22;46681;47.696;9.140;2023-06-26T07:33:34;23.70;50.50
60848;DHT22;46681;47.696;9.140;2023-06-26T07:36:27;23.80;48.50
60848;DHT22;46681;47.696;9.140;2023-06-26T07:38:56;24.00;48.00
60848;DHT22;46681;47.696;9.140;2023-06-26T07:41:54;24.10;47.80
60848;DHT22;46681;47.696;9.140;2023-06-26T07:44:50;24.30;47.50
60848;DHT22;46681;47.696;9.140;2023-06-26T07:47:43;24.40;47.10
60848;DHT22;46681;47.696;9.140;2023-06-26T07:52:43;24.60;46.70
60848;DHT22;46681;47.696;9.140;2023-06-26T07:55:27;24.80;46.40
60848;DHT22;46681;47.696;9.140;2023-06-26T07:58:06;24.90;46.20
60848;DHT22;46681;47.696;9.140;2023-06-26T08:00:47;25.00;45.90
60848;DHT22;46681;47.696;9.140;2023-06-26T08:09:33;25.50;45.30
60848;DHT22;46681;47.696;9.140;2023-06-26T08:12:08;25.60;45.30
60848;DHT22;46681;47.696;9.140;2023-06-26T08:14:53;25.80;45.00
60848;DHT22;46681;47.696;9.140;2023-06-26T08:17:40;25.80;44.90
60848;DHT22;46681;47.696;9.140;2023-06-26T08:20:21;26.00;44.90
60848;DHT22;46681;47.696;9.140;2023-06-26T08:23:14;26.10;44.70
60848;DHT22;46681;47.696;9.140;2023-06-26T08:26:13;26.20;44.50
60848;DHT22;46681;47.696;9.140;2023-06-26T08:28:51;26.40;44.40
60848;DHT22;46681;47.696;9.140;2023-06-26T08:31:35;26.50;44.40
60848;DHT22;46681;47.696;9.140;2023-06-26T08:34:12;26.70;44.30
60848;DHT22;46681;47.696;9.140;2023-06-26T08:36:38;26.80;44.10
60848;DHT22;46681;47.696;9.140;2023-06-26T08:39:25;26.90;44.00
60848;DHT22;46681;47.696;9.140;2023-06-26T08:42:46;27.00;43.90
60848;DHT22;46681;47.696;9.140;2023-06-26T08:45:46;27.20;43.70
60848;DHT22;46681;47.696;9.140;2023-06-26T08:49:46;27.30;43.60
60848;DHT22;46681;47.696;9.140;2023-06-26T08:52:40;27.50;43.40
60848;DHT22;46681;47.696;9.140;2023-06-26T09:01:50;28.10;42.90
60848;DHT22;46681;47.696;9.140;2023-06-26T09:07:43;28.30;43.20
60848;DHT22;46681;47.696;9.140;2023-06-26T09:10:28;28.50;42.80
60848;DHT22;46681;47.696;9.140;2023-06-26T09:12:59;28.60;42.60
60848;DHT22;46681;47.696;9.140;2023-06-26T09:15:25;28.70;42.60
60848;DHT22;46681;47.696;9.140;2023-06-26T09:18:12;28.80;43.20
60848;DHT22;46681;47.696;9.140;2023-06-26T09:21:08;29.10;43.30
60848;DHT22;46681;47.696;9.140;2023-06-26T09:26:38;29.40;43.20
60848;DHT22;46681;47.696;9.140;2023-06-26T09:29:21;29.70;42.50
60848;DHT22;46681;47.696;9.140;2023-06-26T09:32:00;29.80;42.30
60848;DHT22;46681;47.696;9.140;2023-06-26T09:34:32;29.80;42.10
60848;DHT22;46681;47.696;9.140;2023-06-26T09:40:28;30.10;41.90
60848;DHT22;46681;47.696;9.140;2023-06-26T09:43:23;30.20;41.70
60848;DHT22;46681;47.696;9.140;2023-06-26T09:46:34;30.40;41.60
60848;DHT22;46681;47.696;9.140;2023-06-26T09:49:16;30.50;41.40
60848;DHT22;46681;47.696;9.140;2023-06-26T10:01:23;31.00;41.10
60848;DHT22;46681;47.696;9.140;2023-06-26T10:07:17;31.40;39.90
60848;DHT22;46681;47.696;9.140;2023-06-26T10:13:52;31.80;39.70
60848;DHT22;46681;47.696;9.140;2023-06-26T10:16:48;32.00;40.00
60848;DHT22;46681;47.696;9.140;2023-06-26T10:19:43;32.00;39.10
60848;DHT22;46681;47.696;9.140;2023-06-26T11:20:51;33.80;38.70
60848;DHT22;46681;47.696;9.140;2023-06-26T11:29:57;34.10;38.60
60848;DHT22;46681;47.696;9.140;2023-06-26T11:48:32;34.60;38.30
60848;DHT22;46681;47.696;9.140;2023-06-26T11:54:51;34.60;38.20
60848;DHT22;46681;47.696;9.140;2023-06-26T12:00:53;34.80;37.90
60848;DHT22;46681;47.696;9.140;2023-06-26T12:06:38;34.90;37.90
60848;DHT22;46681;47.696;9.140;2023-06-26T12:09:38;34.90;37.90
60848;DHT22;46681;47.696;9.140;2023-06-26T12:12:50;35.00;37.70
60848;DHT22;46681;47.696;9.140;2023-06-26T12:37:35;35.30;36.00
60848;DHT22;46681;47.696;9.140;2023-06-26T12:40:44;35.00;37.30
60848;DHT22;46681;47.696;9.140;2023-06-26T13:07:40;34.10;38.50
60848;DHT22;46681;47.696;9.140;2023-06-26T13:10:24;34.30;38.40
60848;DHT22;46681;47.696;9.140;2023-06-26T13:19:44;34.70;38.30
60848;DHT22;46681;47.696;9.140;2023-06-26T13:25:40;35.00;38.10
60848;DHT22;46681;47.696;9.140;2023-06-26T13:28:11;35.00;38.10
60848;DHT22;46681;47.696;9.140;2023-06-26T13:31:03;35.10;38.00
60848;DHT22;46681;47.696;9.140;2023-06-26T13:58:34;35.20;38.00
60848;DHT22;46681;47.696;9.140;2023-06-26T14:01:28;35.30;38.20
60848;DHT22;46681;47.696;9.140;2023-06-26T14:04:12;35.30;38.10
60848;DHT22;46681;47.696;9.140;2023-06-26T14:07:07;35.30;38.10
60848;DHT22;46681;47.696;9.140;2023-06-26T14:13:08;35.30;38.10
60848;DHT22;46681;47.696;9.140;2023-06-26T14:16:06;35.30;38.00
60848;DHT22;46681;47.696;9.140;2023-06-26T14:22:04;35.40;38.10
60848;DHT22;46681;47.696;9.140;2023-06-26T14:31:38;35.30;38.10
60848;DHT22;46681;47.696;9.140;2023-06-26T14:40:33;35.10;37.80
60848;DHT22;46681;47.696;9.140;2023-06-26T14:43:03;35.10;38.00
60848;DHT22;46681;47.696;9.140;2023-06-26T14:48:51;35.10;38.00
60848;DHT22;46681;47.696;9.140;2023-06-26T14:51:57;35.00;37.60
60848;DHT22;46681;47.696;9.140;2023-06-26T15:12:36;34.50;38.20
60848;DHT22;46681;47.696;9.140;2023-06-26T15:21:59;34.40;38.30
60848;DHT22;46681;47.696;9.140;2023-06-26T15:31:01;34.20;38.40
60848;DHT22;46681;47.696;9.140;2023-06-26T15:33:34;34.10;38.60
60848;DHT22;46681;47.696;9.140;2023-06-26T15:36:58;34.00;38.30
60848;DHT22;46681;47.696;9.140;2023-06-26T15:39:54;33.90;38.50
60848;DHT22;46681;47.696;9.140;2023-06-26T15:42:51;33.90;38.40
60848;DHT22;46681;47.696;9.140;2023-06-26T15:45:33;33.80;37.90
60848;DHT22;46681;47.696;9.140;2023-06-26T15:48:19;33.80;38.40
60848;DHT22;46681;47.696;9.140;2023-06-26T15:51:10;33.80;38.10
60848;DHT22;46681;47.696;9.140;2023-06-26T15:53:55;33.70;38.60
60848;DHT22;46681;47.696;9.140;2023-06-26T15:56:34;33.60;38.60
60848;DHT22;46681;47.696;9.140;2023-06-26T15:58:59;33.50;38.90
60848;DHT22;46681;47.696;9.140;2023-06-26T16:01:38;33.30;39.00
60848;DHT22;46681;47.696;9.140;2023-06-26T16:04:24;33.30;39.20
60848;DHT22;46681;47.696;9.140;2023-06-26T16:06:52;33.30;39.30
60848;DHT22;46681;47.696;9.140;2023-06-26T16:09:19;33.20;39.30
60848;DHT22;46681;47.696;9.140;2023-06-26T16:15:34;33.20;39.40
60848;DHT22;46681;47.696;9.140;2023-06-26T16:18:39;33.20;39.30
60848;DHT22;46681;47.696;9.140;2023-06-26T16:24:49;33.00;39.40
60848;DHT22;46681;47.696;9.140;2023-06-26T16:27:59;33.00;38.60
60848;DHT22;46681;47.696;9.140;2023-06-26T16:30:48;32.90;39.20
60848;DHT22;46681;47.696;9.140;2023-06-26T16:33:53;32.80;38.40
60848;DHT22;46681;47.696;9.140;2023-06-26T16:37:03;32.50;38.80
60848;DHT22;46681;47.696;9.140;2023-06-26T16:43:09;32.40;38.60
60848;DHT22;46681;47.696;9.140;2023-06-26T16:46:24;32.20;39.60
60848;DHT22;46681;47.696;9.140;2023-06-26T16:52:20;32.20;39.00
60848;DHT22;46681;47.696;9.140;2023-06-26T16:58:25;32.00;38.90
60848;DHT22;46681;47.696;9.140;2023-06-26T17:13:24;31.70;39.50
60848;DHT22;46681;47.696;9.140;2023-06-26T17:15:57;31.70;39.00
60848;DHT22;46681;47.696;9.140;2023-06-26T17:18:49;31.60;39.30
60848;DHT22;46681;47.696;9.140;2023-06-26T17:21:27;31.60;39.50
60848;DHT22;46681;47.696;9.140;2023-06-26T17:33:21;31.30;39.70
60848;DHT22;46681;47.696;9.140;2023-06-26T17:36:07;31.20;39.80
60848;DHT22;46681;47.696;9.140;2023-06-26T17:38:44;31.10;39.60
60848;DHT22;46681;47.696;9.140;2023-06-26T17:41:42;31.10;39.80
60848;DHT22;46681;47.696;9.140;2023-06-26T17:44:19;31.00;39.90
60848;DHT22;46681;47.696;9.140;2023-06-26T17:47:17;30.90;39.80
60848;DHT22;46681;47.696;9.140;2023-06-26T17:50:01;30.80;40.00
60848;DHT22;46681;47.696;9.140;2023-06-26T17:56:01;30.70;39.80
60848;DHT22;46681;47.696;9.140;2023-06-26T17:58:39;30.50;40.10
60848;DHT22;46681;47.696;9.140;2023-06-26T18:01:25;30.30;40.20
60848;DHT22;46681;47.696;9.140;2023-06-26T18:04:25;30.30;40.40
60848;DHT22;46681;47.696;9.140;2023-06-26T18:06:52;30.20;40.30
60848;DHT22;46681;47.696;9.140;2023-06-26T18:09:23;30.20;40.30
60848;DHT22;46681;47.696;9.140;2023-06-26T18:12:01;30.20;40.30
60848;DHT22;46681;47.696;9.140;2023-06-26T18:14:28;30.10;40.30
60848;DHT22;46681;47.696;9.140;2023-06-26T18:16:54;30.00;40.60
60848;DHT22;46681;47.696;9.140;2023-06-26T18:19:23;30.00;40.40
60848;DHT22;46681;47.696;9.140;2023-06-26T18:21:48;29.80;41.20
60848;DHT22;46681;47.696;9.140;2023-06-26T18:24:18;29.60;41.40
60848;DHT22;46681;47.696;9.140;2023-06-26T18:26:51;29.40;41.20
60848;DHT22;46681;47.696;9.140;2023-06-26T18:29:18;29.30;40.90
60848;DHT22;46681;47.696;9.140;2023-06-26T18:31:45;29.30;40.80
60848;DHT22;46681;47.696;9.140;2023-06-26T18:34:11;29.30;40.70
60848;DHT22;46681;47.696;9.140;2023-06-26T18:36:59;29.30;40.80
60848;DHT22;46681;47.696;9.140;2023-06-26T18:39:28;29.30;40.70
60848;DHT22;46681;47.696;9.140;2023-06-26T18:42:09;29.30;40.70
60848;DHT22;46681;47.696;9.140;2023-06-26T18:45:02;29.30;40.60
60848;DHT22;46681;47.696;9.140;2023-06-26T18:47:56;29.20;40.50
60848;DHT22;46681;47.696;9.140;2023-06-26T18:50:35;29.20;40.50
60848;DHT22;46681;47.696;9.140;2023-06-26T18:53:18;29.20;40.70
60848;DHT22;46681;47.696;9.140;2023-06-26T18:55:55;29.10;40.70
60848;DHT22;46681;47.696;9.140;2023-06-26T18:58:39;29.00;40.70
60848;DHT22;46681;47.696;9.140;2023-06-26T19:01:47;29.00;40.80
60848;DHT22;46681;47.696;9.140;2023-06-26T19:04:39;28.90;40.80
60848;DHT22;46681;47.696;9.140;2023-06-26T19:07:15;28.80;40.90
60848;DHT22;46681;47.696;9.140;2023-06-26T19:09:41;28.80;40.80
60848;DHT22;46681;47.696;9.140;2023-06-26T19:12:13;28.70;40.90
60848;DHT22;46681;47.696;9.140;2023-06-26T19:14:52;28.60;40.80
60848;DHT22;46681;47.696;9.140;2023-06-26T19:17:25;28.60;40.90
60848;DHT22;46681;47.696;9.140;2023-06-26T19:20:02;28.50;40.90
60848;DHT22;46681;47.696;9.140;2023-06-26T19:22:40;28.50;41.10
60848;DHT22;46681;47.696;9.140;2023-06-26T19:25:15;28.40;41.10
60848;DHT22;46681;47.696;9.140;2023-06-26T19:27:50;28.40;41.10
60848;DHT22;46681;47.696;9.140;2023-06-26T19:30:25;28.30;41.20
60848;DHT22;46681;47.696;9.140;2023-06-26T19:32:51;28.30;41.20
60848;DHT22;46681;47.696;9.140;2023-06-26T19:35:19;28.10;41.20
60848;DHT22;46681;47.696;9.140;2023-06-26T19:37:55;28.10;41.30
60848;DHT22;46681;47.696;9.140;2023-06-26T19:40:21;28.00;41.40
60848;DHT22;46681;47.696;9.140;2023-06-26T19:42:58;28.00;41.30
60848;DHT22;46681;47.696;9.140;2023-06-26T19:48:22;27.90;41.40
60848;DHT22;46681;47.696;9.140;2023-06-26T19:50:52;27.80;41.80
60848;DHT22;46681;47.696;9.140;2023-06-26T19:53:21;27.70;41.70
60848;DHT22;46681;47.696;9.140;2023-06-26T19:55:55;27.70;41.80
60848;DHT22;46681;47.696;9.140;2023-06-26T19:58:30;27.60;41.90
60848;DHT22;46681;47.696;9.140;2023-06-26T20:00:55;27.60;41.90
60848;DHT22;46681;47.696;9.140;2023-06-26T20:03:21;27.50;41.90
60848;DHT22;46681;47.696;9.140;2023-06-26T20:05:51;27.50;41.90
60848;DHT22;46681;47.696;9.140;2023-06-26T20:08:25;27.40;41.80
60848;DHT22;46681;47.696;9.140;2023-06-26T20:10:51;27.30;41.90
60848;DHT22;46681;47.696;9.140;2023-06-26T20:13:19;27.30;41.80
60848;DHT22;46681;47.696;9.140;2023-06-26T20:15:51;27.20;42.00
60848;DHT22;46681;47.696;9.140;2023-06-26T20:18:24;27.10;41.90
60848;DHT22;46681;47.696;9.140;2023-06-26T20:23:17;27.10;42.30
60848;DHT22;46681;47.696;9.140;2023-06-26T20:25:42;27.00;41.90
60848;DHT22;46681;47.696;9.140;2023-06-26T20:28:09;26.90;42.10
60848;DHT22;46681;47.696;9.140;2023-06-26T20:30:47;26.90;42.10
60848;DHT22;46681;47.696;9.140;2023-06-26T20:33:18;26.80;42.10
60848;DHT22;46681;47.696;9.140;2023-06-26T20:35:52;26.80;42.00
60848;DHT22;46681;47.696;9.140;2023-06-26T20:38:20;26.70;42.10
60848;DHT22;46681;47.696;9.140;2023-06-26T20:40:57;26.70;41.90
60848;DHT22;46681;47.696;9.140;2023-06-26T20:43:23;26.60;42.00
60848;DHT22;46681;47.696;9.140;2023-06-26T20:45:51;26.60;42.10
60848;DHT22;46681;47.696;9.140;2023-06-26T20:48:21;26.60;42.00
60848;DHT22;46681;47.696;9.140;2023-06-26T20:50:48;26.50;42.10
60848;DHT22;46681;47.696;9.140;2023-06-26T20:53:18;26.50;41.90
60848;DHT22;46681;47.696;9.140;2023-06-26T20:55:44;26.40;42.10
60848;DHT22;46681;47.696;9.140;2023-06-26T20:58:11;26.30;42.10
60848;DHT22;46681;47.696;9.140;2023-06-26T21:00:41;26.30;42.10
60848;DHT22;46681;47.696;9.140;2023-06-26T21:03:07;26.30;42.10
60848;DHT22;46681;47.696;9.140;2023-06-26T21:05:32;26.30;41.90
60848;DHT22;46681;47.696;9.140;2023-06-26T21:07:58;26.20;42.20
60848;DHT22;46681;47.696;9.140;2023-06-26T21:10:24;26.10;42.00
60848;DHT22;46681;47.696;9.140;2023-06-26T21:12:49;26.10;42.20
60848;DHT22;46681;47.696;9.140;2023-06-26T21:15:15;26.10;42.10
60848;DHT22;46681;47.696;9.140;2023-06-26T21:17:41;26.00;42.00
60848;DHT22;46681;47.696;9.140;2023-06-26T21:20:13;26.00;42.30
60848;DHT22;46681;47.696;9.140;2023-06-26T21:22:41;26.00;42.20
60848;DHT22;46681;47.696;9.140;2023-06-26T21:25:11;25.90;42.20
60848;DHT22;46681;47.696;9.140;2023-06-26T21:27:41;25.90;42.20
60848;DHT22;46681;47.696;9.140;2023-06-26T21:30:07;25.80;42.20
60848;DHT22;46681;47.696;9.140;2023-06-26T21:32:32;25.80;42.20
60848;DHT22;46681;47.696;9.140;2023-06-26T21:34:58;25.70;42.30
60848;DHT22;46681;47.696;9.140;2023-06-26T21:37:28;25.70;42.20
60848;DHT22;46681;47.696;9.140;2023-06-26T21:39:57;25.70;42.30
60848;DHT22;46681;47.696;9.140;2023-06-26T21:42:23;25.60;42.10
60848;DHT22;46681;47.696;9.140;2023-06-26T21:44:50;25.60;42.40
60848;DHT22;46681;47.696;9.140;2023-06-26T21:47:19;25.50;42.20
60848;DHT22;46681;47.696;9.140;2023-06-26T21:49:57;25.50;42.30
60848;DHT22;46681;47.696;9.140;2023-06-26T21:52:23;25.40;42.10
60848;DHT22;46681;47.696;9.140;2023-06-26T21:54:52;25.40;42.30
60848;DHT22;46681;47.696;9.140;2023-06-26T21:57:19;25.40;42.30
60848;DHT22;46681;47.696;9.140;2023-06-26T21:59:44;25.40;42.40
60848;DHT22;46681;47.696;9.140;2023-06-26T22:02:10;25.30;42.20
60848;DHT22;46681;47.696;9.140;2023-06-26T22:04:40;25.30;42.30
60848;DHT22;46681;47.696;9.140;2023-06-26T22:07:06;25.30;42.40
60848;DHT22;46681;47.696;9.140;2023-06-26T22:09:33;25.20;42.50
60848;DHT22;46681;47.696;9.140;2023-06-26T22:11:58;25.20;42.30
60848;DHT22;46681;47.696;9.140;2023-06-26T22:14:24;25.20;42.40